createdAt,value
2019-05-02T00:01:02.676Z,43.70
2019-05-02T00:02:08.194Z,43.40
2019-05-02T00:03:13.700Z,40.30
2019-05-02T00:04:21.046Z,43.90
2019-05-02T00:05:27.316Z,39.70
2019-05-02T00:06:30.223Z,38.60
2019-05-02T00:07:35.731Z,36.00
2019-05-02T00:08:41.225Z,34.40
2019-05-02T00:09:48.358Z,36.40
2019-05-02T00:10:52.259Z,35.90
2019-05-02T00:11:58.910Z,35.50
2019-05-02T00:13:03.275Z,35.10
2019-05-02T00:14:08.787Z,36.10
2019-05-02T00:15:14.319Z,36.60
2019-05-02T00:16:19.801Z,43.50
2019-05-02T00:17:27.401Z,48.60
2019-05-02T00:18:31.846Z,49.10
2019-05-02T00:19:36.337Z,49.80
2019-05-02T00:20:41.841Z,41.30
2019-05-02T00:21:47.355Z,44.50
2019-05-02T00:22:53.462Z,48.80
2019-05-02T00:23:59.166Z,46.70
2019-05-02T00:25:03.887Z,40.00
2019-05-02T00:26:09.390Z,44.90
2019-05-02T00:27:14.911Z,40.30
2019-05-02T00:28:20.408Z,43.60
2019-05-02T00:29:25.944Z,46.10
2019-05-02T00:30:34.760Z,40.00
2019-05-02T00:31:36.939Z,39.10
2019-05-02T00:32:42.451Z,36.40
2019-05-02T00:33:47.962Z,39.10
2019-05-02T00:34:53.472Z,39.10
2019-05-02T00:35:58.984Z,42.50
2019-05-02T00:37:04.487Z,44.80
2019-05-02T00:38:09.997Z,44.20
2019-05-02T00:39:15.506Z,44.00
2019-05-02T00:40:25.765Z,41.00
2019-05-02T00:41:26.570Z,45.30
2019-05-02T00:42:32.036Z,39.30
2019-05-02T00:43:37.548Z,40.00
2019-05-02T00:44:47.030Z,36.80
2019-05-02T00:45:48.563Z,37.30
2019-05-02T00:46:54.075Z,37.30
2019-05-02T00:47:59.579Z,41.40
2019-05-02T00:49:05.089Z,39.00
2019-05-02T00:50:11.310Z,38.70
2019-05-02T00:51:16.111Z,32.60
2019-05-02T00:52:21.627Z,35.70
2019-05-02T00:53:27.124Z,37.10
2019-05-02T00:54:32.641Z,38.40
2019-05-02T00:55:38.151Z,36.90
2019-05-02T00:56:44.274Z,42.90
2019-05-02T00:57:50.852Z,40.90
2019-05-02T00:58:54.682Z,40.70
2019-05-02T01:00:00.195Z,47.00
2019-05-02T01:01:05.703Z,45.00
2019-05-02T01:02:11.205Z,47.30
2019-05-02T01:03:17.959Z,47.20
2019-05-02T01:04:23.388Z,40.30
2019-05-02T01:05:27.736Z,45.80
2019-05-02T01:06:33.241Z,45.80
2019-05-02T01:07:38.767Z,41.20
2019-05-02T01:08:44.266Z,43.80
2019-05-02T01:09:49.770Z,41.70
2019-05-02T01:10:56.864Z,42.30
2019-05-02T01:12:03.187Z,37.40
2019-05-02T01:13:06.298Z,38.20
2019-05-02T01:14:11.813Z,40.50
2019-05-02T01:15:17.338Z,39.60
2019-05-02T01:16:22.831Z,43.10
2019-05-02T01:17:30.902Z,40.10
2019-05-02T01:20:01.482Z,45.30
2019-05-02T01:21:26.163Z,44.30
2019-05-02T01:22:21.045Z,41.60
2019-05-02T01:23:29.294Z,44.20
2019-05-02T01:24:42.769Z,44.00
2019-05-02T01:25:47.234Z,44.90
2019-05-02T01:26:45.751Z,43.30
2019-05-02T01:27:50.366Z,44.30
2019-05-02T01:28:59.488Z,47.90
2019-05-02T01:30:18.744Z,47.00
2019-05-02T01:31:18.263Z,48.00
2019-05-02T01:32:29.955Z,47.20
2019-05-02T01:33:36.992Z,48.50
2019-05-02T01:34:38.945Z,52.90
2019-05-02T01:36:01.607Z,50.60
2019-05-02T01:36:41.136Z,45.70
2019-05-02T01:37:54.776Z,47.20
2019-05-02T01:39:08.880Z,45.70
2019-05-02T01:40:06.326Z,48.10
2019-05-02T01:41:09.604Z,52.60
2019-05-02T01:42:09.509Z,52.40
2019-05-02T01:43:06.855Z,51.50
2019-05-02T01:44:36.142Z,52.10
2019-05-02T01:45:26.434Z,52.40
2019-05-02T01:46:28.890Z,53.10
2019-05-02T01:47:44.772Z,53.60
2019-05-02T01:48:49.796Z,52.10
2019-05-02T01:49:45.500Z,52.00
2019-05-02T01:50:48.886Z,56.60
2019-05-02T01:51:56.881Z,54.90
2019-05-02T01:53:04.361Z,49.90
2019-05-02T01:54:16.554Z,50.40
2019-05-02T01:55:21.071Z,52.00
2019-05-02T01:56:32.933Z,52.20
2019-05-02T01:57:29.376Z,52.90
2019-05-02T01:58:40.749Z,53.10
2019-05-02T01:59:41.266Z,54.70
2019-05-02T02:00:52.643Z,55.20
2019-05-02T02:02:03.196Z,56.40
2019-05-02T02:03:14.776Z,53.40
2019-05-02T02:03:52.661Z,51.00
2019-05-02T02:05:16.424Z,50.50
2019-05-02T02:06:22.985Z,49.00
2019-05-02T02:07:21.458Z,55.10
2019-05-02T02:08:32.329Z,57.40
2019-05-02T02:09:30.379Z,53.40
2019-05-02T02:11:15.034Z,53.10
2019-05-02T02:12:18.215Z,55.40
2019-05-02T02:13:14.024Z,55.00
2019-05-02T02:14:18.230Z,57.10
2019-05-02T02:15:30.828Z,54.60
2019-05-02T02:16:35.117Z,53.80
2019-05-02T02:17:39.546Z,53.60
2019-05-02T02:18:53.686Z,54.80
2019-05-02T02:19:29.935Z,49.00
2019-05-02T02:20:50.261Z,53.20
2019-05-02T02:22:47.879Z,54.30
2019-05-02T02:23:19.539Z,52.10
2019-05-02T02:24:45.020Z,50.30
2019-05-02T02:25:37.487Z,47.00
2019-05-02T02:26:51.496Z,48.00
2019-05-02T02:28:26.311Z,49.50
2019-05-02T02:29:43.872Z,49.40
2019-05-02T02:30:32.576Z,50.30
2019-05-02T02:31:54.902Z,48.70
2019-05-02T02:33:27.480Z,47.90
2019-05-02T02:34:02.313Z,50.70
2019-05-02T02:35:19.498Z,51.40
2019-05-02T02:37:05.358Z,55.80
2019-05-02T02:37:52.741Z,51.30
2019-05-02T02:39:20.757Z,51.10
2019-05-02T02:40:01.520Z,54.20
2019-05-02T02:41:12.770Z,54.60
2019-05-02T02:42:52.711Z,51.30
2019-05-02T02:43:41.568Z,48.40
2019-05-02T02:44:44.246Z,48.40
2019-05-02T02:45:57.471Z,50.40
2019-05-02T02:46:53.778Z,50.30
2019-05-02T02:49:26.262Z,49.60
2019-05-02T02:50:45.074Z,53.20
2019-05-02T02:51:43.261Z,47.30
2019-05-02T02:52:54.026Z,45.50
2019-05-02T02:53:43.795Z,39.90
2019-05-02T02:55:25.065Z,43.00
2019-05-02T02:56:58.246Z,40.70
2019-05-02T02:57:34.202Z,40.30
2019-05-02T02:59:45.469Z,43.90
2019-05-02T03:01:02.780Z,44.80
2019-05-02T03:02:03.117Z,50.80
2019-05-02T03:03:45.707Z,53.10
2019-05-02T03:04:26.778Z,52.00
2019-05-02T03:06:05.285Z,50.40
2019-05-02T03:07:04.459Z,52.10
2019-05-02T03:08:05.193Z,54.80
2019-05-02T03:09:02.423Z,48.70
2019-05-02T03:10:17.076Z,48.70
2019-05-02T03:11:43.297Z,48.20
2019-05-02T03:12:36.056Z,44.00
2019-05-02T03:14:00.120Z,44.30
2019-05-02T03:14:31.143Z,45.90
2019-05-02T03:15:52.245Z,47.80
2019-05-02T03:17:02.071Z,48.00
2019-05-02T03:18:20.818Z,48.20
2019-05-02T03:19:20.927Z,46.10
2019-05-02T03:20:07.929Z,48.80
2019-05-02T03:21:28.933Z,52.40
2019-05-02T03:22:34.628Z,57.10
2019-05-02T03:23:14.927Z,52.30
2019-05-02T03:24:28.857Z,53.30
2019-05-02T03:25:24.918Z,51.90
2019-05-02T03:27:07.667Z,49.40
2019-05-02T03:28:02.669Z,50.40
2019-05-02T03:28:52.326Z,50.90
2019-05-02T03:30:20.219Z,48.30
2019-05-02T03:31:41.086Z,48.00
2019-05-02T03:32:34.963Z,54.10
2019-05-02T03:34:05.261Z,53.10
2019-05-02T03:34:54.241Z,56.00
2019-05-02T03:36:34.877Z,59.00
2019-05-02T03:37:53.100Z,60.70
2019-05-02T03:38:54.135Z,50.00
2019-05-02T03:39:41.444Z,50.80
2019-05-02T03:41:03.983Z,49.20
2019-05-02T03:42:03.000Z,51.10
2019-05-02T03:42:53.750Z,49.10
2019-05-02T03:44:32.004Z,49.80
2019-05-02T03:45:39.614Z,52.00
2019-05-02T03:46:39.756Z,49.20
2019-05-02T03:47:47.438Z,48.60
2019-05-02T03:48:35.666Z,47.40
2019-05-02T03:49:52.632Z,47.80
2019-05-02T03:50:50.631Z,46.50
2019-05-02T03:51:35.074Z,50.90
2019-05-02T03:53:17.402Z,48.50
2019-05-02T03:53:40.615Z,49.10
2019-05-02T03:54:56.084Z,55.50
2019-05-02T03:56:29.376Z,49.80
2019-05-02T03:59:44.044Z,50.40
2019-05-02T04:00:29.402Z,49.80
2019-05-02T04:01:47.741Z,48.50
2019-05-02T04:03:00.073Z,52.30
2019-05-02T04:03:57.482Z,51.90
2019-05-02T04:05:18.989Z,49.50
2019-05-02T04:06:13.559Z,48.60
2019-05-02T04:06:54.808Z,49.80
2019-05-02T04:08:26.589Z,52.70
2019-05-02T04:09:02.238Z,50.80
2019-05-02T04:10:43.702Z,49.70
2019-05-02T04:11:15.966Z,50.60
2019-05-02T04:12:32.784Z,49.60
2019-05-02T04:13:38.127Z,50.50
2019-05-02T04:14:40.064Z,48.80
2019-05-02T04:15:39.027Z,50.20
2019-05-02T04:16:54.993Z,49.70
2019-05-02T04:18:08.271Z,51.10
2019-05-02T04:19:08.231Z,51.40
2019-05-02T04:20:26.774Z,47.90
2019-05-02T04:21:13.059Z,50.30
2019-05-02T04:22:28.635Z,50.70
2019-05-02T04:23:21.091Z,50.70
2019-05-02T04:24:25.468Z,53.50
2019-05-02T04:25:38.480Z,53.70
2019-05-02T04:26:45.825Z,52.40
2019-05-02T04:27:42.393Z,53.30
2019-05-02T04:29:07.174Z,50.60
2019-05-02T04:30:03.938Z,52.60
2019-05-02T04:31:11.698Z,50.30
2019-05-02T04:32:14.133Z,49.90
2019-05-02T04:33:14.367Z,50.50
2019-05-02T04:34:14.935Z,51.20
2019-05-02T04:35:42.645Z,50.80
2019-05-02T04:36:23.403Z,50.30
2019-05-02T04:37:34.147Z,54.30
2019-05-02T04:38:54.449Z,52.40
2019-05-02T04:39:39.072Z,52.90
2019-05-02T04:40:49.847Z,55.80
2019-05-02T04:41:48.594Z,52.30
2019-05-02T04:43:18.310Z,51.50
2019-05-02T04:44:02.773Z,54.50
2019-05-02T04:45:13.920Z,50.80
2019-05-02T04:46:25.558Z,54.50
2019-05-02T04:47:29.054Z,51.10
2019-05-02T04:48:20.411Z,54.20
2019-05-02T04:49:35.732Z,49.30
2019-05-02T04:50:32.305Z,50.90
2019-05-02T04:51:38.087Z,53.30
2019-05-02T04:52:53.869Z,52.30
2019-05-02T04:53:54.955Z,53.00
2019-05-02T04:55:00.830Z,50.70
2019-05-02T04:56:18.899Z,51.90
2019-05-02T04:57:11.977Z,52.70
2019-05-02T04:58:27.364Z,52.10
2019-05-02T04:59:17.816Z,51.40
2019-05-02T05:00:32.062Z,49.90
2019-05-02T05:01:48.157Z,48.40
2019-05-02T05:02:40.480Z,47.60
2019-05-02T05:03:48.404Z,51.30
2019-05-02T05:04:46.363Z,52.80
2019-05-02T05:06:07.287Z,52.50
2019-05-02T05:07:00.970Z,53.00
2019-05-02T05:08:16.809Z,52.00
2019-05-02T05:09:09.650Z,50.40
2019-05-02T05:10:20.361Z,50.20
2019-05-02T05:11:39.412Z,53.60
2019-05-02T05:12:27.770Z,55.40
2019-05-02T05:13:26.254Z,53.10
2019-05-02T05:14:42.894Z,52.20
2019-05-02T05:15:51.710Z,53.10
2019-05-02T05:16:55.336Z,52.10
2019-05-02T05:17:58.307Z,53.00
2019-05-02T05:19:04.035Z,54.40
2019-05-02T05:20:00.114Z,51.00
2019-05-02T05:21:18.043Z,52.10
2019-05-02T05:22:22.284Z,51.40
2019-05-02T05:23:34.066Z,51.60
2019-05-02T05:24:42.137Z,54.20
2019-05-02T05:25:38.098Z,52.90
2019-05-02T05:26:43.609Z,53.30
2019-05-02T05:27:47.919Z,53.00
2019-05-02T05:28:48.743Z,50.80
2019-05-02T05:30:07.628Z,51.20
2019-05-02T05:31:00.939Z,50.80
2019-05-02T05:32:09.766Z,53.60
2019-05-02T05:33:10.193Z,52.10
2019-05-02T05:34:17.493Z,51.80
2019-05-02T05:35:23.806Z,50.30
2019-05-02T05:36:34.365Z,50.00
2019-05-02T05:37:38.072Z,50.00
2019-05-02T05:38:44.307Z,51.30
2019-05-02T05:39:50.951Z,50.90
2019-05-02T05:40:55.276Z,49.20
2019-05-02T05:41:58.463Z,46.60
2019-05-02T05:43:02.056Z,50.30
2019-05-02T05:44:10.250Z,50.00
2019-05-02T05:45:13.810Z,49.40
2019-05-02T05:46:20.706Z,49.60
2019-05-02T05:47:27.683Z,49.10
2019-05-02T05:48:31.979Z,47.90
2019-05-02T05:49:37.527Z,49.70
2019-05-02T05:50:37.084Z,47.20
2019-05-02T05:51:41.331Z,50.20
2019-05-02T05:52:44.415Z,48.10
2019-05-02T05:53:56.743Z,47.90
2019-05-02T05:54:54.451Z,47.20
2019-05-02T05:56:11.048Z,45.40
2019-05-02T05:57:16.727Z,46.40
2019-05-02T05:58:28.371Z,45.60
2019-05-02T05:59:17.508Z,48.20
2019-05-02T06:00:40.769Z,47.90
2019-05-02T06:01:34.572Z,44.50
2019-05-02T06:02:50.899Z,48.20
2019-05-02T06:03:44.631Z,44.20
2019-05-02T06:04:55.121Z,47.70
2019-05-02T06:06:00.573Z,47.40
2019-05-02T06:07:07.264Z,45.70
2019-05-02T06:08:08.877Z,45.90
2019-05-02T06:09:13.854Z,44.40
2019-05-02T06:10:18.311Z,45.00
2019-05-02T06:11:21.774Z,43.00
2019-05-02T06:12:30.047Z,46.40
2019-05-02T06:13:38.040Z,42.50
2019-05-02T06:14:38.715Z,45.60
2019-05-02T06:15:47.433Z,46.60
2019-05-02T06:16:56.242Z,42.70
2019-05-02T06:18:04.850Z,44.10
2019-05-02T06:19:03.424Z,44.30
2019-05-02T06:20:09.367Z,43.90
2019-05-02T06:21:11.627Z,46.10
2019-05-02T06:22:24.132Z,43.10
2019-05-02T06:23:20.765Z,45.50
2019-05-02T06:24:38.888Z,45.80
2019-05-02T06:25:42.887Z,45.00
2019-05-02T06:26:44.581Z,46.10
2019-05-02T06:27:49.965Z,45.00
2019-05-02T06:28:41.788Z,45.50
2019-05-02T06:30:06.978Z,47.60
2019-05-02T06:31:08.688Z,46.30
2019-05-02T06:32:04.947Z,45.00
2019-05-02T06:33:15.192Z,44.20
2019-05-02T06:34:11.612Z,45.40
2019-05-02T06:35:21.147Z,44.30
2019-05-02T06:36:36.760Z,48.70
2019-05-02T06:37:29.972Z,46.00
2019-05-02T06:38:42.771Z,47.60
2019-05-02T06:39:46.567Z,47.40
2019-05-02T06:40:50.978Z,46.30
2019-05-02T06:42:00.002Z,46.10
2019-05-02T06:43:04.089Z,46.00
2019-05-02T06:44:00.729Z,43.80
2019-05-02T06:45:13.540Z,47.30
2019-05-02T06:46:27.653Z,47.10
2019-05-02T06:47:29.110Z,44.80
2019-05-02T06:48:31.788Z,48.10
2019-05-02T06:49:29.739Z,46.80
2019-05-02T06:50:40.682Z,44.30
2019-05-02T06:51:41.324Z,48.90
2019-05-02T06:52:48.397Z,46.80
2019-05-02T06:54:09.294Z,46.00
2019-05-02T06:55:09.913Z,47.30
2019-05-02T06:56:15.249Z,46.80
2019-05-02T06:57:18.913Z,46.30
2019-05-02T06:58:17.208Z,44.90
2019-05-02T06:59:20.280Z,46.60
2019-05-02T07:00:37.263Z,48.90
2019-05-02T07:01:46.104Z,49.70
2019-05-02T07:02:39.153Z,49.40
2019-05-02T07:03:46.145Z,46.30
2019-05-02T07:04:48.070Z,43.30
2019-05-02T07:05:58.544Z,41.30
2019-05-02T07:07:03.524Z,46.00
2019-05-02T07:08:13.385Z,44.80
2019-05-02T07:09:09.392Z,45.00
2019-05-02T07:10:19.844Z,42.20
2019-05-02T07:11:24.771Z,42.40
2019-05-02T07:12:33.181Z,42.90
2019-05-02T07:13:30.622Z,42.60
2019-05-02T07:14:45.590Z,43.50
2019-05-02T07:15:49.791Z,41.50
2019-05-02T07:16:49.588Z,41.40
2019-05-02T07:18:05.427Z,40.10
2019-05-02T07:19:03.116Z,39.30
2019-05-02T07:20:14.087Z,41.60
2019-05-02T07:21:12.035Z,40.30
2019-05-02T07:22:21.062Z,42.50
2019-05-02T07:23:23.522Z,43.40
2019-05-02T07:24:30.865Z,41.50
2019-05-02T07:25:31.935Z,44.10
2019-05-02T07:26:52.210Z,41.90
2019-05-02T07:27:56.623Z,43.80
2019-05-02T07:29:01.652Z,42.10
2019-05-02T07:29:58.015Z,40.70
2019-05-02T07:30:59.821Z,40.10
2019-05-02T07:32:19.077Z,41.70
2019-05-02T07:33:16.122Z,40.80
2019-05-02T07:34:18.787Z,38.80
2019-05-02T07:35:24.312Z,38.70
2019-05-02T07:36:31.010Z,42.30
2019-05-02T07:37:33.139Z,39.70
2019-05-02T07:38:43.292Z,41.70
2019-05-02T07:39:42.255Z,40.20
2019-05-02T07:40:52.868Z,39.20
2019-05-02T07:42:07.847Z,41.80
2019-05-02T07:43:02.053Z,42.90
2019-05-02T07:44:11.279Z,40.10
2019-05-02T07:45:28.285Z,41.40
2019-05-02T07:46:29.726Z,41.20
2019-05-02T07:47:34.784Z,39.00
2019-05-02T07:48:29.325Z,39.80
2019-05-02T07:49:41.004Z,42.60
2019-05-02T07:50:35.892Z,41.70
2019-05-02T07:51:46.957Z,39.10
2019-05-02T07:52:54.047Z,41.90
2019-05-02T07:53:59.980Z,42.30
2019-05-02T07:55:10.082Z,43.10
2019-05-02T07:56:12.415Z,41.90
2019-05-02T07:57:18.122Z,41.20
2019-05-02T07:58:31.341Z,43.70
2019-05-02T07:59:37.903Z,44.10
2019-05-02T08:00:36.970Z,43.60
2019-05-02T08:01:30.642Z,43.40
2019-05-02T08:02:44.578Z,41.90
2019-05-02T08:03:48.899Z,42.20
2019-05-02T08:04:54.953Z,41.10
2019-05-02T08:06:06.923Z,42.40
2019-05-02T08:06:59.663Z,41.20
2019-05-02T08:08:11.753Z,40.70
2019-05-02T08:09:24.862Z,41.60
2019-05-02T08:10:32.558Z,40.20
2019-05-02T08:11:22.729Z,41.30
2019-05-02T08:12:48.749Z,40.20
2019-05-02T08:13:35.544Z,41.90
2019-05-02T08:15:00.288Z,38.90
2019-05-02T08:15:56.858Z,39.00
2019-05-02T08:17:05.006Z,40.70
2019-05-02T08:17:56.766Z,43.20
2019-05-02T08:19:16.639Z,42.00
2019-05-02T08:20:29.035Z,42.00
2019-05-02T08:21:36.620Z,41.10
2019-05-02T08:22:21.470Z,39.00
2019-05-02T08:23:27.816Z,43.00
2019-05-02T08:25:10.267Z,42.70
2019-05-02T08:25:41.386Z,38.40
2019-05-02T08:27:09.419Z,41.20
2019-05-02T08:27:57.653Z,43.70
2019-05-02T08:28:59.605Z,40.60
2019-05-02T08:30:35.310Z,40.90
2019-05-02T08:31:18.812Z,41.50
2019-05-02T08:32:12.934Z,40.50
2019-05-02T08:33:19.291Z,41.10
2019-05-02T08:35:16.850Z,42.70
2019-05-02T08:35:48.799Z,42.30
2019-05-02T08:37:41.241Z,45.70
2019-05-02T08:38:42.777Z,44.60
2019-05-02T08:39:33.566Z,46.70
2019-05-02T08:40:42.331Z,47.00
2019-05-02T08:41:33.586Z,49.20
2019-05-02T08:42:56.115Z,48.00
2019-05-02T08:43:44.821Z,53.30
2019-05-02T08:45:25.726Z,49.20
2019-05-02T08:45:54.918Z,50.30
2019-05-02T08:47:17.839Z,53.20
2019-05-02T08:48:15.505Z,51.10
2019-05-02T08:49:31.182Z,50.20
2019-05-02T08:50:34.091Z,51.30
2019-05-02T08:51:27.302Z,50.80
2019-05-02T08:52:18.294Z,48.10
2019-05-02T08:53:39.109Z,48.10
2019-05-02T08:54:46.571Z,49.60
2019-05-02T08:56:00.610Z,49.70
2019-05-02T08:57:09.218Z,51.20
2019-05-02T08:57:55.706Z,48.60
2019-05-02T08:59:13.122Z,51.20
2019-05-02T09:00:18.553Z,50.10
2019-05-02T09:01:34.301Z,49.50
2019-05-02T09:02:40.557Z,50.80
2019-05-02T09:03:28.216Z,48.50
2019-05-02T09:04:30.668Z,48.50
2019-05-02T09:05:36.318Z,49.80
2019-05-02T09:06:42.668Z,49.10
2019-05-02T09:07:48.912Z,48.70
2019-05-02T09:08:40.227Z,52.00
2019-05-02T09:09:55.522Z,46.70
2019-05-02T09:11:06.760Z,47.90
2019-05-02T09:12:12.599Z,45.50
2019-05-02T09:13:04.928Z,46.50
2019-05-02T09:14:15.988Z,46.40
2019-05-02T09:15:23.578Z,43.80
2019-05-02T09:16:42.681Z,45.40
2019-05-02T09:17:35.125Z,43.40
2019-05-02T09:18:54.492Z,43.30
2019-05-02T09:19:59.174Z,42.30
2019-05-02T09:20:57.299Z,42.50
2019-05-02T09:21:59.968Z,44.90
2019-05-02T09:23:01.763Z,42.30
2019-05-02T09:24:20.677Z,42.00
2019-05-02T09:25:12.477Z,43.30
2019-05-02T09:26:32.467Z,42.50
2019-05-02T09:27:18.948Z,42.00
2019-05-02T09:28:34.835Z,41.00
2019-05-02T09:29:48.858Z,41.30
2019-05-02T09:30:57.179Z,43.40
2019-05-02T09:31:47.951Z,43.80
2019-05-02T09:32:44.622Z,41.00
2019-05-02T09:33:57.184Z,42.80
2019-05-02T09:35:08.867Z,43.40
2019-05-02T09:36:06.821Z,39.60
2019-05-02T09:37:22.654Z,38.40
2019-05-02T09:38:18.717Z,41.10
2019-05-02T09:39:39.006Z,38.30
2019-05-02T09:40:35.728Z,39.60
2019-05-02T09:41:36.212Z,40.10
2019-05-02T09:42:43.033Z,39.20
2019-05-02T09:43:42.282Z,38.00
2019-05-02T09:44:56.888Z,41.20
2019-05-02T09:46:02.574Z,39.20
2019-05-02T09:47:05.462Z,39.90
2019-05-02T09:48:21.920Z,40.90
2019-05-02T09:49:16.492Z,40.50
2019-05-02T09:50:26.580Z,39.80
2019-05-02T09:51:24.032Z,41.70
2019-05-02T09:52:39.192Z,40.50
2019-05-02T09:53:32.745Z,38.20
2019-05-02T09:54:41.777Z,40.50
2019-05-02T09:55:55.128Z,41.40
2019-05-02T09:56:54.574Z,38.90
2019-05-02T09:57:58.170Z,41.50
2019-05-02T09:59:23.366Z,38.80
2019-05-02T10:00:12.741Z,39.40
2019-05-02T10:01:18.579Z,40.00
2019-05-02T10:02:17.548Z,40.10
2019-05-02T10:03:26.871Z,41.30
2019-05-02T10:04:44.049Z,38.30
2019-05-02T10:05:47.574Z,39.60
2019-05-02T10:06:52.382Z,40.40
2019-05-02T10:07:42.568Z,40.80
2019-05-02T10:09:02.802Z,38.90
2019-05-02T10:10:12.547Z,42.40
2019-05-02T10:11:07.785Z,40.40
2019-05-02T10:12:05.633Z,42.90
2019-05-02T10:13:14.349Z,38.80
2019-05-02T10:14:22.579Z,38.20
2019-05-02T10:15:14.975Z,39.30
2019-05-02T10:16:39.865Z,38.50
2019-05-02T10:17:44.806Z,39.70
2019-05-02T10:18:49.093Z,40.10
2019-05-02T10:19:48.797Z,39.50
2019-05-02T10:21:08.082Z,39.60
2019-05-02T10:21:56.410Z,39.30
2019-05-02T10:23:32.537Z,39.20
2019-05-02T10:24:15.345Z,41.70
2019-05-02T10:25:37.688Z,38.00
2019-05-02T10:26:29.796Z,38.00
2019-05-02T10:27:57.653Z,38.90
2019-05-02T10:28:53.331Z,38.10
2019-05-02T10:29:44.662Z,36.70
2019-05-02T10:31:22.455Z,37.90
2019-05-02T10:31:54.203Z,38.90
2019-05-02T10:33:27.875Z,38.70
2019-05-02T10:34:17.501Z,39.40
2019-05-02T10:35:55.561Z,37.20
2019-05-02T10:36:46.666Z,37.80
2019-05-02T10:37:42.911Z,41.20
2019-05-02T10:38:48.881Z,37.50
2019-05-02T10:39:55.991Z,38.70
2019-05-02T10:40:59.322Z,36.50
2019-05-02T10:41:52.838Z,39.30
2019-05-02T10:43:11.714Z,38.60
2019-05-02T10:44:12.908Z,37.10
2019-05-02T10:44:57.773Z,36.70
2019-05-02T10:46:16.108Z,37.80
2019-05-02T10:47:13.870Z,39.10
2019-05-02T10:48:27.459Z,37.40
2019-05-02T10:49:26.779Z,39.00
2019-05-02T10:50:28.836Z,35.20
2019-05-02T10:51:41.098Z,38.90
2019-05-02T10:52:48.713Z,37.20
2019-05-02T10:53:42.383Z,35.00
2019-05-02T10:54:49.240Z,36.20
2019-05-02T10:55:58.265Z,34.00
2019-05-02T10:56:58.057Z,35.80
2019-05-02T10:58:05.642Z,36.80
2019-05-02T10:59:07.085Z,34.60
2019-05-02T11:00:24.709Z,35.00
2019-05-02T11:01:34.955Z,35.30
2019-05-02T11:02:32.850Z,34.50
2019-05-02T11:03:31.892Z,33.00
2019-05-02T11:04:38.451Z,36.60
2019-05-02T11:05:57.828Z,35.00
2019-05-02T11:06:51.819Z,35.00
2019-05-02T11:07:56.769Z,32.30
2019-05-02T11:09:08.183Z,34.50
2019-05-02T11:10:14.431Z,33.70
2019-05-02T11:11:15.359Z,35.30
2019-05-02T11:12:25.557Z,33.80
2019-05-02T11:13:37.184Z,32.10
2019-05-02T11:14:31.886Z,32.40
2019-05-02T11:15:46.832Z,31.70
2019-05-02T11:16:42.307Z,32.70
2019-05-02T11:17:50.114Z,33.20
2019-05-02T11:19:02.538Z,33.80
2019-05-02T11:20:07.024Z,32.10
2019-05-02T11:21:12.202Z,31.70
2019-05-02T11:22:05.398Z,32.40
2019-05-02T11:23:12.590Z,34.40
2019-05-02T11:24:23.434Z,36.00
2019-05-02T11:25:26.412Z,33.80
2019-05-02T11:26:36.455Z,32.90
2019-05-02T11:27:37.279Z,33.30
2019-05-02T11:28:47.627Z,36.10
2019-05-02T11:29:42.823Z,34.60
2019-05-02T11:30:57.036Z,33.40
2019-05-02T11:31:53.895Z,33.10
2019-05-02T11:33:04.756Z,32.00
2019-05-02T11:34:07.528Z,33.50
2019-05-02T11:35:19.056Z,32.80
2019-05-02T11:36:19.520Z,34.60
2019-05-02T11:37:32.911Z,32.40
2019-05-02T11:38:33.396Z,34.70
2019-05-02T11:39:44.924Z,32.60
2019-05-02T11:40:38.083Z,30.70
2019-05-02T11:41:56.729Z,30.30
2019-05-02T11:43:01.865Z,30.70
2019-05-02T11:44:12.072Z,31.80
2019-05-02T11:45:12.073Z,32.00
2019-05-02T11:46:18.773Z,31.50
2019-05-02T11:47:21.881Z,32.30
2019-05-02T11:48:24.420Z,31.80
2019-05-02T11:49:32.208Z,30.10
2019-05-02T11:50:36.105Z,30.20
2019-05-02T11:51:46.914Z,27.90
2019-05-02T11:52:42.398Z,27.90
2019-05-02T11:53:42.135Z,29.30
2019-05-02T11:55:01.999Z,29.90
2019-05-02T11:55:53.022Z,28.80
2019-05-02T11:57:11.694Z,32.00
2019-05-02T11:58:15.271Z,29.90
2019-05-02T11:59:14.940Z,30.10
2019-05-02T12:00:21.862Z,29.80
2019-05-02T12:01:37.304Z,29.30
2019-05-02T12:02:36.086Z,30.30
2019-05-02T12:03:42.391Z,30.70
2019-05-02T12:04:47.510Z,31.10
2019-05-02T12:05:58.737Z,31.20
2019-05-02T12:07:04.729Z,28.60
2019-05-02T12:08:12.281Z,30.00
2019-05-02T12:09:08.602Z,31.30
2019-05-02T12:10:12.798Z,30.70
2019-05-02T12:11:27.545Z,33.60
2019-05-02T12:12:36.246Z,31.90
2019-05-02T12:13:32.130Z,31.80
2019-05-02T12:14:36.227Z,35.10
2019-05-02T12:15:42.185Z,28.90
2019-05-02T12:17:06.703Z,28.10
2019-05-02T12:17:54.733Z,30.40
2019-05-02T12:19:08.492Z,29.00
2019-05-02T12:20:04.878Z,31.90
2019-05-02T12:21:32.414Z,29.70
2019-05-02T12:22:23.983Z,29.30
2019-05-02T12:23:32.761Z,29.70
2019-05-02T12:24:40.748Z,29.80
2019-05-02T12:25:32.765Z,29.30
2019-05-02T12:26:42.086Z,29.50
2019-05-02T12:27:52.847Z,33.30
2019-05-02T12:28:47.744Z,30.10
2019-05-02T12:30:13.033Z,27.70
2019-05-02T12:31:07.900Z,28.50
2019-05-02T12:32:15.584Z,29.40
2019-05-02T12:33:16.946Z,33.30
2019-05-02T12:34:23.606Z,28.90
2019-05-02T12:35:35.086Z,28.10
2019-05-02T12:36:33.223Z,29.20
2019-05-02T12:37:51.137Z,30.00
2019-05-02T12:38:49.547Z,33.90
2019-05-02T12:40:07.368Z,31.60
2019-05-02T12:40:57.955Z,30.80
2019-05-02T12:42:12.647Z,32.30
2019-05-02T12:43:19.673Z,30.30
2019-05-02T12:44:38.831Z,30.00
2019-05-02T12:45:35.151Z,30.20
2019-05-02T12:46:33.835Z,29.20
2019-05-02T12:47:48.896Z,32.40
2019-05-02T12:48:36.505Z,29.40
2019-05-02T12:49:51.925Z,27.70
2019-05-02T12:51:09.388Z,28.60
2019-05-02T12:51:46.044Z,26.10
2019-05-02T12:53:07.865Z,24.80
2019-05-02T12:54:04.203Z,24.70
2019-05-02T12:55:07.572Z,27.90
2019-05-02T12:56:08.807Z,26.30
2019-05-02T12:57:31.994Z,28.30
2019-05-02T12:58:28.277Z,27.00
2019-05-02T12:59:37.192Z,27.50
2019-05-02T13:00:47.245Z,25.80
2019-05-02T13:01:44.996Z,27.30
2019-05-02T13:02:53.209Z,27.80
2019-05-02T13:03:54.631Z,28.70
2019-05-02T13:05:17.405Z,30.00
2019-05-02T13:06:17.886Z,27.00
2019-05-02T13:07:23.336Z,30.50
2019-05-02T13:08:18.110Z,28.60
2019-05-02T13:09:20.468Z,30.30
2019-05-02T13:10:21.969Z,29.70
2019-05-02T13:11:52.215Z,29.80
2019-05-02T13:12:32.270Z,29.80
2019-05-02T13:13:49.589Z,27.90
2019-05-02T13:14:42.620Z,30.20
2019-05-02T13:16:12.202Z,29.90
2019-05-02T13:17:23.213Z,28.90
2019-05-02T13:18:34.001Z,29.70
2019-05-02T13:19:19.821Z,29.80
2019-05-02T13:20:15.843Z,27.80
2019-05-02T13:21:38.615Z,29.20
2019-05-02T13:22:28.118Z,29.10
2019-05-02T13:23:42.350Z,26.40
2019-05-02T13:24:38.182Z,25.00
2019-05-02T13:25:42.443Z,24.70
2019-05-02T13:26:38.608Z,23.80
2019-05-02T13:28:06.980Z,23.60
2019-05-02T13:29:03.819Z,24.50
2019-05-02T13:30:42.433Z,24.90
2019-05-02T13:31:19.286Z,25.20
2019-05-02T13:32:18.569Z,25.20
2019-05-02T13:33:43.670Z,26.30
2019-05-02T13:34:22.043Z,24.30
2019-05-02T13:35:31.784Z,24.30
2019-05-02T13:36:39.292Z,24.80
2019-05-02T13:37:46.057Z,24.90
2019-05-02T13:39:15.657Z,24.20
2019-05-02T13:39:54.368Z,24.80
2019-05-02T13:41:28.984Z,23.70
2019-05-02T13:42:02.673Z,27.00
2019-05-02T13:43:21.798Z,24.50
2019-05-02T13:44:34.124Z,24.20
2019-05-02T13:45:23.992Z,24.90
2019-05-02T13:46:35.169Z,23.60
2019-05-02T13:48:02.628Z,24.80
2019-05-02T13:49:06.312Z,34.70
2019-05-02T13:50:05.916Z,25.00
2019-05-02T13:51:09.192Z,24.50
2019-05-02T13:52:14.004Z,23.50
2019-05-02T13:53:38.183Z,26.80
2019-05-02T13:54:21.687Z,22.30
2019-05-02T13:55:31.763Z,23.50
2019-05-02T13:56:26.530Z,24.10
2019-05-02T13:57:34.149Z,23.00
2019-05-02T13:58:37.091Z,23.00
2019-05-02T14:00:02.594Z,23.30
2019-05-02T14:00:57.582Z,23.60
2019-05-02T14:01:58.928Z,23.60
2019-05-02T14:03:24.219Z,22.90
2019-05-02T14:04:10.031Z,23.20
2019-05-02T14:05:12.949Z,23.10
2019-05-02T14:06:12.427Z,23.30
2019-05-02T14:07:17.250Z,25.60
2019-05-02T14:08:19.753Z,26.40
2019-05-02T14:09:50.236Z,24.70
2019-05-02T14:10:39.078Z,24.10
2019-05-02T14:11:41.129Z,25.60
2019-05-02T14:12:44.915Z,25.80
2019-05-02T14:13:36.167Z,24.30
2019-05-02T14:15:00.032Z,24.30
2019-05-02T14:15:52.615Z,24.80